Startpagina
METAR-TAF:

METAR-TAF

Vliegvelden :

Büchel, Duitsland

breedte: 50-10N, lengte: 007-04E, hoogte: 478 m

Actueel weer

Dit bericht is 35 minuten geleden gemaakt, om 12:20 UTC
Wind 14 kt uit het zuidzuidwesten
Temperatuur 15°C
Vochtigheid 72%
Druk 1009 hPa

METAR: ETSB 161220Z AUTO 21014KT //// // ////// 15/10 Q1009 ///

Tijdstip: 14:55 (12:55 UTC)


TAF: ontbreekt

Waarnemingen en weersverwachtingen van meer dan 4000 vliegvelden (METAR en TAF).

De beschikbare stations zijn de gele en rode punten op de kaart.

Ga met uw muis naar het station om de naam te zien.

Klik dan om waarnemingen en weersverwachtingen te zien.

kaart wijzigen: klik op de groene knoppen met een zwart kruis om in te zoomen, op de groene knop met een streepje om uit te zoomen of op de groene pijlen voor aangrenzende kaarten.


METAR-TAF: